Capitol Logistics 7438

Operating for MZN



KRIV
March Air Reserve Base
Riverside, California
KSKF
Kelly Field Airport
San Antonio, Texas

Activity Log

Date Flight Route Aircraft Duration
No Flights Yet

Route Details

Aircraft Information
Primary: Boeing 737-800BCF
Backup: Boeing 757-200SF
Route Data
Distance: 992nm
Duration: 2h 20m
Recm'd Route: SKYES4 TRM J169 TFD J50 ELP J2 FST CSI2
Origin Wx: KRIV 180158Z AUTO 31006KT 10SM CLR 21/09 A2991 RMK AO2 SLP122 T02070090
Dest. Wx: KSKF 180156Z AUTO 01015G21KT 10SM OVC100 15/05 A3006 RMK AO2 SLP178 T01530052 $
Notes: